Echelon, New Jersey
Current Conditions -  °F | °C
As of 2:54 AM on Thursday 29 Jan 2015 (Local Time) from KVAY Reporting Station
Clear Clear  
Wind Chill: 13°   Ceiling: Unl
Heat Index: 13°   Visibility: 10mi
Dew Point:   Wind: 0mph
Humidity: 71%   Direction: NA
Pressure: 30.32"   Gusts: NA
Location:  39.8445°N, 74.9532°W
Report Text: KVAY 290754Z AUTO 00000KT 10SM CLR M11/M15 A3032 RMK AO2 SLP266 T11061150
Loading
Personal Weather Stations






























Interactive Weather Map New forecast layout! Learn more

10-Day Weather Forecast

Advertisements
Track Severe Weather on mobile